PWSweather.com
Personal Weather Stations
Station Observations
133525
French Quarters West Seneca , West Seneca, NY 14224

French Quarters West Seneca West Seneca, NY 14224

Lat: 42.850058, Lon: -78.799754

Elevation: 603

Station Type: Davis Vantage Vue pro2

http://westsenecaweather.com/

High Low Average
Temperature 78.0°F25.6°C 51.7°F10.9°C 65.5°F18.6°C
Dew Point 64.1°F17.8°C 50.6°F10.3°C 58.8°F14.9°C
Winds Calm Calm Calm Calm Calm SWCalm SW
Wind Gusts 1.2 mph1.9 kmh -- --
Humidity 97% 57% 81%
Pressure 29.87 in1011.5 mb 29.75 in1007.5 mb -
Precipitation 0.00 in0.0 mm - -
Hour Temp Dew Point Humidity Winds Wind Gusts Pressure Precip Precip Rate Daily Precip Total
12:00 AM 58.2°F14.6°C 55.6°F13.1°C 91% Calm Calm -- 29.87 in1011.5 mb - 0.00 in0.0 mm 0.00 in0.0 mm
12:10 AM 57.8°F14.3°C 55.5°F13.1°C 92% Calm Calm -- 29.87 in1011.5 mb - 0.00 in0.0 mm 0.00 in0.0 mm
12:20 AM 57.3°F14.1°C 55.0°F12.8°C 92% Calm Calm -- 29.87 in1011.5 mb - 0.00 in0.0 mm 0.00 in0.0 mm
12:30 AM 57.1°F13.9°C 54.8°F12.7°C 92% Calm Calm -- 29.87 in1011.5 mb - 0.00 in0.0 mm 0.00 in0.0 mm
12:40 AM 56.8°F13.8°C 54.5°F12.5°C 92% Calm Calm -- 29.87 in1011.5 mb - 0.00 in0.0 mm 0.00 in0.0 mm
12:50 AM 56.5°F13.6°C 54.5°F12.5°C 93% Calm Calm -- 29.87 in1011.5 mb - 0.00 in0.0 mm 0.00 in0.0 mm
01:00 AM 56.2°F13.4°C 54.2°F12.3°C 93% Calm Calm -- 29.87 in1011.5 mb - 0.00 in0.0 mm 0.00 in0.0 mm
01:10 AM 56.0°F13.3°C 54.0°F12.2°C 93% Calm Calm -- 29.87 in1011.5 mb - 0.00 in0.0 mm 0.00 in0.0 mm
01:20 AM 55.7°F13.2°C 53.7°F12.1°C 93% Calm Calm -- 29.87 in1011.5 mb - 0.00 in0.0 mm 0.00 in0.0 mm
01:30 AM 55.4°F13.0°C 53.4°F11.9°C 93% Calm Calm -- 29.87 in1011.5 mb - 0.00 in0.0 mm 0.00 in0.0 mm
01:40 AM 55.1°F12.8°C 53.1°F11.7°C 93% Calm Calm -- 29.87 in1011.5 mb - 0.00 in0.0 mm 0.00 in0.0 mm
01:50 AM 54.9°F12.7°C 53.2°F11.8°C 94% Calm Calm -- 29.87 in1011.5 mb - 0.00 in0.0 mm 0.00 in0.0 mm
02:00 AM 54.5°F12.5°C 52.5°F11.4°C 93% Calm Calm -- 29.86 in1011.2 mb - 0.00 in0.0 mm 0.00 in0.0 mm
02:10 AM 54.1°F12.3°C 52.4°F11.3°C 94% Calm Calm -- 29.86 in1011.2 mb - 0.00 in0.0 mm 0.00 in0.0 mm
02:20 AM 53.9°F12.2°C 52.2°F11.2°C 94% Calm Calm -- 29.86 in1011.2 mb - 0.00 in0.0 mm 0.00 in0.0 mm
02:30 AM 53.5°F11.9°C 51.8°F11.0°C 94% Calm Calm -- 29.86 in1011.2 mb - 0.00 in0.0 mm 0.00 in0.0 mm
02:40 AM 53.3°F11.8°C 51.6°F10.9°C 94% Calm Calm -- 29.86 in1011.2 mb - 0.00 in0.0 mm 0.00 in0.0 mm
02:50 AM 52.9°F11.6°C 51.2°F10.7°C 94% Calm Calm -- 29.85 in1010.8 mb - 0.00 in0.0 mm 0.00 in0.0 mm
03:00 AM 52.7°F11.5°C 51.3°F10.7°C 95% Calm Calm -- 29.85 in1010.8 mb - 0.00 in0.0 mm 0.00 in0.0 mm
03:10 AM 52.6°F11.4°C 51.2°F10.7°C 95% Calm Calm -- 29.84 in1010.5 mb - 0.00 in0.0 mm 0.00 in0.0 mm
03:20 AM 52.8°F11.6°C 51.4°F10.8°C 95% Calm Calm -- 29.84 in1010.5 mb - 0.00 in0.0 mm 0.00 in0.0 mm
03:30 AM 52.6°F11.4°C 51.2°F10.7°C 95% Calm Calm -- 29.84 in1010.5 mb - 0.00 in0.0 mm 0.00 in0.0 mm
03:40 AM 52.6°F11.4°C 51.2°F10.7°C 95% Calm Calm -- 29.84 in1010.5 mb - 0.00 in0.0 mm 0.00 in0.0 mm
03:50 AM 52.6°F11.4°C 51.2°F10.7°C 95% Calm Calm -- 29.84 in1010.5 mb - 0.00 in0.0 mm 0.00 in0.0 mm
04:00 AM 52.3°F11.3°C 50.9°F10.5°C 95% Calm Calm -- 29.84 in1010.5 mb - 0.00 in0.0 mm 0.00 in0.0 mm
04:10 AM 52.1°F11.2°C 50.7°F10.4°C 95% Calm Calm -- 29.84 in1010.5 mb - 0.00 in0.0 mm 0.00 in0.0 mm
04:20 AM 52.1°F11.2°C 50.7°F10.4°C 95% Calm Calm -- 29.84 in1010.5 mb - 0.00 in0.0 mm 0.00 in0.0 mm
04:30 AM 52.0°F11.1°C 50.6°F10.3°C 95% Calm Calm -- 29.84 in1010.5 mb - 0.00 in0.0 mm 0.00 in0.0 mm
04:40 AM 51.8°F11.0°C 50.7°F10.4°C 96% Calm Calm -- 29.84 in1010.5 mb - 0.00 in0.0 mm 0.00 in0.0 mm
04:50 AM 51.7°F10.9°C 50.6°F10.3°C 96% Calm Calm -- 29.85 in1010.8 mb - 0.00 in0.0 mm 0.00 in0.0 mm
05:00 AM 51.7°F10.9°C 50.6°F10.3°C 96% Calm Calm -- 29.85 in1010.8 mb - 0.00 in0.0 mm 0.00 in0.0 mm
05:10 AM 52.0°F11.1°C 50.9°F10.5°C 96% Calm Calm -- 29.85 in1010.8 mb - 0.00 in0.0 mm 0.00 in0.0 mm
05:20 AM 52.1°F11.2°C 51.0°F10.6°C 96% Calm Calm -- 29.85 in1010.8 mb - 0.00 in0.0 mm 0.00 in0.0 mm
05:30 AM 52.3°F11.3°C 51.2°F10.7°C 96% Calm Calm -- 29.85 in1010.8 mb - 0.00 in0.0 mm 0.00 in0.0 mm
05:40 AM 52.6°F11.4°C 51.5°F10.8°C 96% Calm Calm -- 29.85 in1010.8 mb - 0.00 in0.0 mm 0.00 in0.0 mm
05:50 AM 52.8°F11.6°C 51.7°F10.9°C 96% Calm Calm -- 29.85 in1010.8 mb - 0.00 in0.0 mm 0.00 in0.0 mm
06:00 AM 53.2°F11.8°C 52.4°F11.3°C 97% Calm Calm -- 29.85 in1010.8 mb - 0.00 in0.0 mm 0.00 in0.0 mm
06:10 AM 53.4°F11.9°C 52.3°F11.3°C 96% Calm Calm -- 29.85 in1010.8 mb - 0.00 in0.0 mm 0.00 in0.0 mm
06:20 AM 53.8°F12.1°C 52.7°F11.5°C 96% Calm Calm -- 29.85 in1010.8 mb - 0.00 in0.0 mm 0.00 in0.0 mm
06:30 AM 54.3°F12.4°C 53.2°F11.8°C 96% Calm Calm -- 29.85 in1010.8 mb - 0.00 in0.0 mm 0.00 in0.0 mm
06:40 AM 54.5°F12.5°C 53.1°F11.7°C 95% Calm Calm -- 29.85 in1010.8 mb - 0.00 in0.0 mm 0.00 in0.0 mm
06:50 AM 54.7°F12.6°C 53.3°F11.8°C 95% Calm Calm -- 29.86 in1011.2 mb - 0.00 in0.0 mm 0.00 in0.0 mm
07:00 AM 55.0°F12.8°C 53.6°F12.0°C 95% Calm Calm -- 29.86 in1011.2 mb - 0.00 in0.0 mm 0.00 in0.0 mm
07:10 AM 55.5°F13.1°C 53.8°F12.1°C 94% Calm Calm -- 29.86 in1011.2 mb - 0.00 in0.0 mm 0.00 in0.0 mm
07:20 AM 56.6°F13.7°C 54.9°F12.7°C 94% Calm Calm -- 29.86 in1011.2 mb - 0.00 in0.0 mm 0.00 in0.0 mm
07:30 AM 58.0°F14.4°C 56.0°F13.3°C 93% Calm Calm -- 29.86 in1011.2 mb - 0.00 in0.0 mm 0.00 in0.0 mm
07:40 AM 59.9°F15.5°C 56.4°F13.6°C 88% Calm Calm -- 29.85 in1010.8 mb - 0.00 in0.0 mm 0.00 in0.0 mm
07:50 AM 61.6°F16.4°C 57.0°F13.9°C 85% Calm Calm -- 29.85 in1010.8 mb - 0.00 in0.0 mm 0.00 in0.0 mm
08:00 AM 62.8°F17.1°C 57.2°F14.0°C 82% Calm Calm -- 29.85 in1010.8 mb - 0.00 in0.0 mm 0.00 in0.0 mm
08:10 AM 63.5°F17.5°C 57.9°F14.4°C 82% Calm Calm -- 29.85 in1010.8 mb - 0.00 in0.0 mm 0.00 in0.0 mm
08:20 AM 64.4°F18.0°C 57.8°F14.3°C 79% Calm Calm -- 29.85 in1010.8 mb - 0.00 in0.0 mm 0.00 in0.0 mm
08:30 AM 64.8°F18.2°C 58.5°F14.7°C 80% Calm Calm -- 29.85 in1010.8 mb - 0.00 in0.0 mm 0.00 in0.0 mm
08:40 AM 65.2°F18.4°C 58.5°F14.7°C 79% Calm Calm -- 29.85 in1010.8 mb - 0.00 in0.0 mm 0.00 in0.0 mm
08:50 AM 65.6°F18.7°C 58.9°F14.9°C 79% Calm Calm -- 29.85 in1010.8 mb - 0.00 in0.0 mm 0.00 in0.0 mm
09:00 AM 65.9°F18.8°C 59.6°F15.3°C 80% Calm Calm -- 29.85 in1010.8 mb - 0.00 in0.0 mm 0.00 in0.0 mm
09:10 AM 66.2°F19.0°C 59.5°F15.3°C 79% Calm Calm -- 29.85 in1010.8 mb - 0.00 in0.0 mm 0.00 in0.0 mm
09:20 AM 66.7°F19.3°C 59.6°F15.3°C 78% Calm Calm -- 29.85 in1010.8 mb - 0.00 in0.0 mm 0.00 in0.0 mm
09:30 AM 67.1°F19.5°C 59.6°F15.3°C 77% Calm Calm -- 29.84 in1010.5 mb - 0.00 in0.0 mm 0.00 in0.0 mm
09:40 AM 67.7°F19.8°C 60.2°F15.7°C 77% Calm Calm -- 29.84 in1010.5 mb - 0.00 in0.0 mm 0.00 in0.0 mm
09:50 AM 68.6°F20.3°C 60.3°F15.7°C 75% Calm Calm -- 29.84 in1010.5 mb - 0.00 in0.0 mm 0.00 in0.0 mm
10:00 AM 69.3°F20.7°C 60.3°F15.7°C 73% Calm Calm -- 29.83 in1010.2 mb - 0.00 in0.0 mm 0.00 in0.0 mm
10:10 AM 70.4°F21.3°C 61.3°F16.3°C 73% Calm Calm -- 29.83 in1010.2 mb - 0.00 in0.0 mm 0.00 in0.0 mm
10:20 AM 71.0°F21.7°C 61.1°F16.2°C 71% Calm Calm -- 29.82 in1009.8 mb - 0.00 in0.0 mm 0.00 in0.0 mm
10:30 AM 71.7°F22.1°C 61.0°F16.1°C 69% Calm Calm -- 29.82 in1009.8 mb - 0.00 in0.0 mm 0.00 in0.0 mm
10:40 AM 72.1°F22.3°C 60.1°F15.6°C 66% Calm Calm -- 29.82 in1009.8 mb - 0.00 in0.0 mm 0.00 in0.0 mm
10:50 AM 72.0°F22.2°C 60.4°F15.8°C 67% Calm Calm -- 29.82 in1009.8 mb - 0.00 in0.0 mm 0.00 in0.0 mm
11:00 AM 72.4°F22.4°C 60.0°F15.6°C 65% Calm Calm -- 29.82 in1009.8 mb - 0.00 in0.0 mm 0.00 in0.0 mm
11:10 AM 73.1°F22.8°C 60.6°F15.9°C 65% Calm Calm -- 29.82 in1009.8 mb - 0.00 in0.0 mm 0.00 in0.0 mm
11:20 AM 74.0°F23.3°C 60.6°F15.9°C 63% Calm Calm -- 29.82 in1009.8 mb - 0.00 in0.0 mm 0.00 in0.0 mm
11:30 AM 74.3°F23.5°C 60.4°F15.8°C 62% Calm Calm -- 29.81 in1009.5 mb - 0.00 in0.0 mm 0.00 in0.0 mm
11:40 AM 74.5°F23.6°C 60.6°F15.9°C 62% Calm Calm -- 29.81 in1009.5 mb - 0.00 in0.0 mm 0.00 in0.0 mm
11:50 AM 74.8°F23.8°C 60.5°F15.8°C 61% Calm Calm -- 29.81 in1009.5 mb - 0.00 in0.0 mm 0.00 in0.0 mm
12:00 PM 75.5°F24.2°C 61.1°F16.2°C 61% Calm Calm -- 29.80 in1009.1 mb - 0.00 in0.0 mm 0.00 in0.0 mm
12:10 PM 76.5°F24.7°C 61.6°F16.4°C 60% Calm Calm -- 29.80 in1009.1 mb - 0.00 in0.0 mm 0.00 in0.0 mm
12:20 PM 76.3°F24.6°C 60.5°F15.8°C 58% Calm Calm -- 29.80 in1009.1 mb - 0.00 in0.0 mm 0.00 in0.0 mm
12:30 PM 77.1°F25.1°C 61.7°F16.5°C 59% Calm Calm -- 29.79 in1008.8 mb - 0.00 in0.0 mm 0.00 in0.0 mm
12:40 PM 77.3°F25.2°C 61.8°F16.6°C 59% Calm Calm -- 29.79 in1008.8 mb - 0.00 in0.0 mm 0.00 in0.0 mm
12:50 PM 77.0°F25.0°C 61.1°F16.2°C 58% Calm Calm -- 29.79 in1008.8 mb - 0.00 in0.0 mm 0.00 in0.0 mm
01:00 PM 77.5°F25.3°C 62.1°F16.7°C 59% Calm Calm -- 29.78 in1008.5 mb - 0.00 in0.0 mm 0.00 in0.0 mm
01:10 PM 77.9°F25.5°C 61.4°F16.3°C 57% Calm Calm -- 29.78 in1008.5 mb - 0.00 in0.0 mm 0.00 in0.0 mm
01:20 PM 77.7°F25.4°C 62.3°F16.8°C 59% Calm Calm -- 29.78 in1008.5 mb - 0.00 in0.0 mm 0.00 in0.0 mm
01:30 PM 77.3°F25.2°C 61.3°F16.3°C 58% Calm Calm -- 29.78 in1008.5 mb - 0.00 in0.0 mm 0.00 in0.0 mm
01:40 PM 76.6°F24.8°C 62.1°F16.7°C 61% Calm Calm -- 29.77 in1008.1 mb - 0.00 in0.0 mm 0.00 in0.0 mm
01:50 PM 77.3°F25.2°C 62.3°F16.8°C 60% Calm Calm -- 29.77 in1008.1 mb - 0.00 in0.0 mm 0.00 in0.0 mm
02:00 PM 77.7°F25.4°C 62.2°F16.8°C 59% Calm Calm -- 29.77 in1008.1 mb - 0.00 in0.0 mm 0.00 in0.0 mm
02:10 PM 77.9°F25.5°C 62.9°F17.2°C 60% Calm Calm -- 29.77 in1008.1 mb - 0.00 in0.0 mm 0.00 in0.0 mm
02:20 PM 77.8°F25.4°C 62.8°F17.1°C 60% Calm Calm -- 29.77 in1008.1 mb - 0.00 in0.0 mm 0.00 in0.0 mm
02:30 PM 77.8°F25.4°C 63.3°F17.4°C 61% Calm Calm -- 29.76 in1007.8 mb - 0.00 in0.0 mm 0.00 in0.0 mm
02:40 PM 78.0°F25.6°C 63.0°F17.2°C 60% Calm Calm -- 29.77 in1008.1 mb - 0.00 in0.0 mm 0.00 in0.0 mm
02:50 PM 77.3°F25.2°C 63.3°F17.4°C 62% Calm Calm 1.2 mph1.9 kmh 29.76 in1007.8 mb - 0.00 in0.0 mm 0.00 in0.0 mm
03:00 PM 77.2°F25.1°C 63.2°F17.3°C 62% Calm Calm -- 29.76 in1007.8 mb - 0.00 in0.0 mm 0.00 in0.0 mm
03:10 PM 76.9°F24.9°C 63.3°F17.4°C 63% Calm Calm 1.2 mph1.9 kmh 29.76 in1007.8 mb - 0.00 in0.0 mm 0.00 in0.0 mm
03:20 PM 76.2°F24.6°C 63.1°F17.3°C 64% Calm Calm -- 29.76 in1007.8 mb - 0.00 in0.0 mm 0.00 in0.0 mm
03:30 PM 75.8°F24.3°C 62.7°F17.1°C 64% Calm Calm -- 29.76 in1007.8 mb - 0.00 in0.0 mm 0.00 in0.0 mm
03:40 PM 76.1°F24.5°C 63.5°F17.5°C 65% Calm Calm -- 29.75 in1007.5 mb - 0.00 in0.0 mm 0.00 in0.0 mm
03:50 PM 76.4°F24.7°C 63.3°F17.4°C 64% Calm Calm -- 29.75 in1007.5 mb - 0.00 in0.0 mm 0.00 in0.0 mm
04:00 PM 76.7°F24.8°C 63.6°F17.6°C 64% Calm Calm -- 29.75 in1007.5 mb - 0.00 in0.0 mm 0.00 in0.0 mm
04:10 PM 77.1°F25.1°C 63.9°F17.7°C 64% Calm Calm -- 29.75 in1007.5 mb - 0.00 in0.0 mm 0.00 in0.0 mm
04:20 PM 77.4°F25.2°C 63.8°F17.7°C 63% Calm Calm -- 29.75 in1007.5 mb - 0.00 in0.0 mm 0.00 in0.0 mm
04:30 PM 76.9°F24.9°C 63.3°F17.4°C 63% Calm Calm -- 29.75 in1007.5 mb - 0.00 in0.0 mm 0.00 in0.0 mm
04:40 PM 77.2°F25.1°C 64.1°F17.8°C 64% Calm Calm -- 29.75 in1007.5 mb - 0.00 in0.0 mm 0.00 in0.0 mm
04:50 PM 77.3°F25.2°C 64.1°F17.8°C 64% Calm Calm -- 29.75 in1007.5 mb - 0.00 in0.0 mm 0.00 in0.0 mm
05:00 PM 76.9°F24.9°C 63.8°F17.7°C 64% Calm Calm -- 29.75 in1007.5 mb - 0.00 in0.0 mm 0.00 in0.0 mm
05:10 PM 76.7°F24.8°C 63.6°F17.6°C 64% Calm Calm -- 29.75 in1007.5 mb - 0.00 in0.0 mm 0.00 in0.0 mm
05:20 PM 75.7°F24.3°C 63.5°F17.5°C 66% Calm Calm -- 29.75 in1007.5 mb - 0.00 in0.0 mm 0.00 in0.0 mm
05:30 PM 75.2°F24.0°C 63.9°F17.7°C 68% Calm Calm -- 29.76 in1007.8 mb - 0.00 in0.0 mm 0.00 in0.0 mm
05:40 PM 75.3°F24.1°C 64.0°F17.8°C 68% Calm Calm -- 29.76 in1007.8 mb - 0.00 in0.0 mm 0.00 in0.0 mm
05:50 PM 74.5°F23.6°C 63.6°F17.6°C 69% Calm Calm -- 29.76 in1007.8 mb - 0.00 in0.0 mm 0.00 in0.0 mm
06:00 PM 73.7°F23.2°C 63.3°F17.4°C 70% Calm Calm -- 29.76 in1007.8 mb - 0.00 in0.0 mm 0.00 in0.0 mm
06:10 PM 73.0°F22.8°C 63.4°F17.4°C 72% Calm Calm -- 29.76 in1007.8 mb - 0.00 in0.0 mm 0.00 in0.0 mm
06:20 PM 72.5°F22.5°C 63.7°F17.6°C 74% Calm Calm -- 29.76 in1007.8 mb - 0.00 in0.0 mm 0.00 in0.0 mm
06:30 PM 72.0°F22.2°C 63.7°F17.6°C 75% Calm Calm -- 29.76 in1007.8 mb - 0.00 in0.0 mm 0.00 in0.0 mm
06:40 PM 71.2°F21.8°C 63.6°F17.6°C 77% Calm Calm -- 29.76 in1007.8 mb - 0.00 in0.0 mm 0.00 in0.0 mm
06:50 PM 70.3°F21.3°C 63.5°F17.5°C 79% Calm Calm -- 29.77 in1008.1 mb - 0.00 in0.0 mm 0.00 in0.0 mm
07:00 PM 69.7°F20.9°C 63.3°F17.4°C 80% Calm Calm -- 29.77 in1008.1 mb - 0.00 in0.0 mm 0.00 in0.0 mm
07:10 PM 69.2°F20.7°C 63.1°F17.3°C 81% Calm Calm -- 29.77 in1008.1 mb - 0.00 in0.0 mm 0.00 in0.0 mm
07:20 PM 68.7°F20.4°C 63.0°F17.2°C 82% Calm Calm -- 29.77 in1008.1 mb - 0.00 in0.0 mm 0.00 in0.0 mm
07:30 PM 68.0°F20.0°C 63.0°F17.2°C 84% Calm Calm -- 29.77 in1008.1 mb - 0.00 in0.0 mm 0.00 in0.0 mm
07:40 PM 67.6°F19.8°C 62.9°F17.2°C 85% Calm Calm -- 29.77 in1008.1 mb - 0.00 in0.0 mm 0.00 in0.0 mm
07:50 PM 67.3°F19.6°C 62.6°F17.0°C 85% Calm Calm -- 29.78 in1008.5 mb - 0.00 in0.0 mm 0.00 in0.0 mm
08:00 PM 67.0°F19.4°C 62.7°F17.1°C 86% Calm Calm -- 29.78 in1008.5 mb - 0.00 in0.0 mm 0.00 in0.0 mm
08:10 PM 66.7°F19.3°C 62.4°F16.9°C 86% Calm Calm -- 29.78 in1008.5 mb - 0.00 in0.0 mm 0.00 in0.0 mm
08:20 PM 66.2°F19.0°C 62.3°F16.8°C 87% Calm Calm -- 29.78 in1008.5 mb - 0.00 in0.0 mm 0.00 in0.0 mm
08:30 PM 65.9°F18.8°C 62.2°F16.8°C 88% Calm Calm -- 29.78 in1008.5 mb - 0.00 in0.0 mm 0.00 in0.0 mm
08:40 PM 65.7°F18.7°C 62.3°F16.8°C 89% Calm Calm -- 29.78 in1008.5 mb - 0.00 in0.0 mm 0.00 in0.0 mm
08:50 PM 65.4°F18.6°C 62.1°F16.7°C 89% Calm Calm -- 29.78 in1008.5 mb - 0.00 in0.0 mm 0.00 in0.0 mm
09:00 PM 65.1°F18.4°C 62.1°F16.7°C 90% Calm Calm -- 29.78 in1008.5 mb - 0.00 in0.0 mm 0.00 in0.0 mm
09:10 PM 64.8°F18.2°C 61.8°F16.6°C 90% Calm Calm -- 29.78 in1008.5 mb - 0.00 in0.0 mm 0.00 in0.0 mm
09:20 PM 64.6°F18.1°C 61.6°F16.4°C 90% Calm Calm -- 29.78 in1008.5 mb - 0.00 in0.0 mm 0.00 in0.0 mm
09:30 PM 64.5°F18.1°C 61.8°F16.6°C 91% Calm Calm -- 29.78 in1008.5 mb - 0.00 in0.0 mm 0.00 in0.0 mm
09:40 PM 64.5°F18.1°C 61.8°F16.6°C 91% Calm Calm -- 29.78 in1008.5 mb - 0.00 in0.0 mm 0.00 in0.0 mm
09:50 PM 64.3°F17.9°C 61.6°F16.4°C 91% Calm Calm -- 29.78 in1008.5 mb - 0.00 in0.0 mm 0.00 in0.0 mm
10:00 PM 64.0°F17.8°C 61.3°F16.3°C 91% Calm Calm -- 29.78 in1008.5 mb - 0.00 in0.0 mm 0.00 in0.0 mm
10:10 PM 63.8°F17.7°C 61.4°F16.3°C 92% Calm Calm -- 29.78 in1008.5 mb - 0.00 in0.0 mm 0.00 in0.0 mm
10:20 PM 63.9°F17.7°C 61.8°F16.6°C 93% Calm Calm -- 29.77 in1008.1 mb - 0.00 in0.0 mm 0.00 in0.0 mm
10:30 PM 63.8°F17.7°C 61.7°F16.5°C 93% Calm Calm -- 29.77 in1008.1 mb - 0.00 in0.0 mm 0.00 in0.0 mm
10:40 PM 63.7°F17.6°C 61.7°F16.5°C 93% Calm Calm -- 29.77 in1008.1 mb - 0.00 in0.0 mm 0.00 in0.0 mm
10:50 PM 63.7°F17.6°C 61.6°F16.4°C 93% Calm Calm -- 29.77 in1008.1 mb - 0.00 in0.0 mm 0.00 in0.0 mm
11:00 PM 63.8°F17.7°C 61.7°F16.5°C 93% Calm Calm -- 29.77 in1008.1 mb - 0.00 in0.0 mm 0.00 in0.0 mm
11:10 PM 63.8°F17.7°C 62.0°F16.7°C 94% Calm Calm -- 29.77 in1008.1 mb - 0.00 in0.0 mm 0.00 in0.0 mm
11:20 PM 63.9°F17.7°C 62.1°F16.7°C 94% Calm Calm -- 29.77 in1008.1 mb - 0.00 in0.0 mm 0.00 in0.0 mm
11:30 PM 63.6°F17.6°C 61.5°F16.4°C 93% Calm Calm -- 29.77 in1008.1 mb - 0.00 in0.0 mm 0.00 in0.0 mm
11:40 PM 63.4°F17.4°C 61.7°F16.5°C 94% Calm Calm -- 29.77 in1008.1 mb - 0.00 in0.0 mm 0.00 in0.0 mm
11:50 PM 63.3°F17.4°C 61.6°F16.4°C 94% Calm Calm -- 29.77 in1008.1 mb - 0.00 in0.0 mm 0.00 in0.0 mm